Homeport Seattle

Current conditions, outlook, and status of Seattle.

 


//


Content-type:text/html

national weather service

2020/07/05 00:53 KSEA 050053Z 29007KT 10SM FEW030 FEW045 21/09 A3019 RMK AO2 SLP229 T02110089
2020/07/05 00:53 KBFI 050053Z VRB05KT 10SM CLR 22/09 A3018 RMK AO2 SLP219 T02170089


  KSEA KBFI
  SeaTac Airport Boeing Field
day: 05 05
time: 0053 0053
type: Automated Automated
cond: Fair Clear
     
Winds    
     
mph: 8 5
mph gusting: 0 0
kts: 7 5
kts gusting: 0 0
direction: 290 5
direction: West Variable
     
Temperature and Humidity    
     
temp F: 69 71
dew point F: 48 48
temp C: 21 22
dew point C: 09 09
rel. humidity: 46 43
     
windchill F: 69 72
windchill C: 20 22
heat index F: 77 77
heat index C: 25 25
     
Clouds and Visibility    
     
cloud cover: Fair Clear
visibility mi: 10 10
visibility km: 16 16
     
Air pressure    
     
in HG: 30.19 30.18
mm HG: 766 766
kg/cm: 1.042509004 1.042163688
psi: 14.82793926 14.82302772
millibar: 1022 1022
     
Experimental and Esoteric    
     
prec tmp: T02110089 T02170089
storm:
sea inHG: 30.20 30.17
sea mmHG: 767 766
sea kgcm: 1.043071588 1.042051868
sea psi: 14.83593702 14.82143322
sea mbar: 1022 1021
     



NOAA Weather Radio Seattle -- KHB60
[ continuous ]

KHB60 coverage map

[ view larger map ]

 

2020.07.5

1 : 21 PST


Local Metric Time

0.56


Unix epoch

1593912073

 

stardate

weather

graphical weather

GD graphics
- gd thermometer
- wind dir
- wind speed

sun and moon

Fire Department 911 Incidents

[ NOAA weather radio ]

 


- * - poop - * -